Time;durP1;ratioP1;P1;durP2;ratioP2;P2;SDS_P1;SDS_P2;PMS_P1;PMS_P2;Temp;Humidity;BMP_temperature;BMP_pressure;BME280_temperature;BME280_humidity;BME280_pressure;Samples;Min_cycle;Max_cycle;Signal;HPM_P1;HPM_P2
2023/06/15 00:00:23;;;;;;;10.45;3.00;;;28.50;99.90;;;;;;1850463;76;21645;-71
2023/06/15 00:02:54;;;;;;;13.10;3.65;;;28.50;99.90;;;;;;1883831;74;21192;-70
2023/06/15 00:05:25;;;;;;;8.90;3.10;;;28.50;99.90;;;;;;1904164;74;21115;-71
2023/06/15 00:07:57;;;;;;;6.75;2.72;;;28.50;99.90;;;;;;1871517;74;21077;-71
2023/06/15 00:10:28;;;;;;;8.55;3.08;;;28.60;99.90;;;;;;1875237;74;21212;-71
2023/06/15 00:13:00;;;;;;;8.60;3.05;;;28.60;99.90;;;;;;1831646;76;21065;-73
2023/06/15 00:15:31;;;;;;;6.92;3.20;;;28.60;99.90;;;;;;1836803;76;21206;-72
2023/06/15 00:18:03;;;;;;;9.43;2.87;;;28.70;99.90;;;;;;1827844;77;21949;-71
2023/06/15 00:20:34;;;;;;;7.28;3.25;;;28.70;99.90;;;;;;1833763;76;21159;-69
2023/06/15 00:23:08;;;;;;;17.17;3.58;;;28.70;99.90;;;;;;1793359;77;21190;-69
2023/06/15 00:25:39;;;;;;;7.25;2.83;;;28.80;99.90;;;;;;1824315;76;21208;-72
2023/06/15 00:28:11;;;;;;;8.65;3.20;;;28.80;99.90;;;;;;1835263;76;21134;-70
2023/06/15 00:30:46;;;;;;;8.30;2.87;;;28.90;99.90;;;;;;1799977;77;21189;-71
2023/06/15 00:33:18;;;;;;;9.60;2.80;;;28.90;99.90;;;;;;1833133;77;21088;-69
2023/06/15 00:35:50;;;;;;;7.75;3.22;;;28.90;99.90;;;;;;1786722;79;21135;-71
2023/06/15 00:38:21;;;;;;;7.62;3.52;;;29.00;99.90;;;;;;1866545;75;21151;-72
2023/06/15 00:40:54;;;;;;;7.80;2.85;;;29.00;99.90;;;;;;1841563;77;21249;-70
2023/06/15 00:43:25;;;;;;;7.78;3.10;;;29.10;99.90;;;;;;1805343;78;21680;-68
2023/06/15 00:45:57;;;;;;;6.42;2.92;;;29.00;99.90;;;;;;1798886;78;21177;-69
2023/06/15 00:48:29;;;;;;;8.13;3.20;;;29.10;99.90;;;;;;1876515;74;21631;-69
2023/06/15 00:51:01;;;;;;;6.78;2.98;;;29.10;99.90;;;;;;1837828;76;21548;-69
2023/06/15 00:53:33;;;;;;;18.82;3.55;;;29.10;99.90;;;;;;1815312;77;21525;-71
2023/06/15 00:56:06;;;;;;;7.33;3.00;;;29.20;99.90;;;;;;1876718;74;21091;-68
2023/06/15 00:58:38;;;;;;;7.95;3.10;;;29.30;99.90;;;;;;1881413;75;21087;-69
2023/06/15 01:01:10;;;;;;;20.82;3.40;;;29.30;99.90;;;;;;1845084;75;21084;-69
2023/06/15 01:03:44;;;;;;;20.15;4.10;;;29.40;99.70;;;;;;1875923;75;21132;-70
2023/06/15 01:06:16;;;;;;;13.10;3.10;;;29.40;99.70;;;;;;1855151;75;21213;-68
2023/06/15 01:08:52;;;;;;;8.85;3.30;;;29.40;99.70;;;;;;1868972;75;21134;-69
2023/06/15 01:11:22;;;;;;;9.33;2.67;;;29.50;99.80;;;;;;1845604;74;21084;-69
2023/06/15 01:13:54;;;;;;;5.72;2.60;;;29.50;99.60;;;;;;1834513;76;21558;-73
2023/06/15 01:16:28;;;;;;;9.53;2.92;;;29.60;99.50;;;;;;1849390;75;21578;-68
2023/06/15 01:18:59;;;;;;;11.93;2.90;;;29.60;99.10;;;;;;1856652;74;21187;-68
2023/06/15 01:21:31;;;;;;;11.80;3.10;;;29.60;99.20;;;;;;1851294;76;21084;-69
2023/06/15 01:24:23;;;;;;;11.03;3.08;;;29.60;99.20;;;;;;1827259;77;21542;-68
2023/06/15 01:26:57;;;;;;;7.83;2.98;;;29.70;99.00;;;;;;1832317;76;21534;-68
2023/06/15 01:29:29;;;;;;;14.65;4.10;;;29.70;98.50;;;;;;1858166;74;21148;-69
2023/06/15 01:32:01;;;;;;;11.97;3.22;;;29.80;99.20;;;;;;1895107;74;21411;-70
2023/06/15 01:34:32;;;;;;;14.85;3.90;;;29.90;98.80;;;;;;1896587;75;21272;-68
2023/06/15 01:37:04;;;;;;;13.40;3.30;;;29.90;98.70;;;;;;1924522;74;21129;-69
2023/06/15 01:39:35;;;;;;;16.77;3.92;;;29.90;98.30;;;;;;1915756;74;21178;-71
2023/06/15 01:42:08;;;;;;;13.05;3.05;;;29.90;98.40;;;;;;1849068;77;21112;-69
2023/06/15 01:44:41;;;;;;;18.37;4.50;;;30.00;98.40;;;;;;1842989;76;21119;-68
2023/06/15 01:47:12;;;;;;;12.73;4.33;;;30.10;98.20;;;;;;1807570;78;21231;-67
2023/06/15 01:49:44;;;;;;;21.68;3.87;;;30.10;97.90;;;;;;1863675;75;21179;-69
2023/06/15 01:52:16;;;;;;;7.97;3.42;;;30.20;97.90;;;;;;1863710;75;21110;-68
2023/06/15 01:54:48;;;;;;;10.58;3.47;;;30.30;97.80;;;;;;1862905;75;21110;-67
2023/06/15 01:57:22;;;;;;;6.10;3.15;;;30.30;97.60;;;;;;1858979;75;21095;-68
2023/06/15 01:59:55;;;;;;;7.73;3.00;;;30.30;97.70;;;;;;1857202;75;21111;-68
2023/06/15 02:02:26;;;;;;;10.72;3.45;;;30.30;97.60;;;;;;1855729;74;21182;-68
2023/06/15 02:04:58;;;;;;;12.68;3.20;;;30.40;97.30;;;;;;1864199;75;21143;-70
2023/06/15 02:07:30;;;;;;;10.80;3.20;;;30.40;97.50;;;;;;1860032;75;21461;-68
2023/06/15 02:10:02;;;;;;;7.42;3.05;;;30.40;96.90;;;;;;1839475;76;21612;-70
2023/06/15 02:12:34;;;;;;;19.15;4.22;;;30.40;96.80;;;;;;1887912;75;21075;-68
2023/06/15 02:15:06;;;;;;;9.63;3.95;;;30.50;96.90;;;;;;1865480;74;21665;-69
2023/06/15 02:17:42;;;;;;;17.95;5.28;;;30.50;97.00;;;;;;1838168;76;21136;-69
2023/06/15 02:20:13;;;;;;;15.43;4.43;;;30.60;97.00;;;;;;1828793;77;21217;-69
2023/06/15 02:22:45;;;;;;;4.97;2.70;;;30.80;97.00;;;;;;1831724;76;21210;-70
2023/06/15 02:25:16;;;;;;;7.95;3.00;;;30.90;96.30;;;;;;1869499;74;21142;-69
2023/06/15 02:27:48;;;;;;;9.90;3.75;;;31.00;95.90;;;;;;1832783;75;21151;-69
2023/06/15 02:30:21;;;;;;;11.68;3.45;;;31.10;96.00;;;;;;1814156;77;21127;-69
2023/06/15 02:33:00;;;;;;;8.15;3.30;;;31.20;95.80;;;;;;1822455;77;21186;-69
2023/06/15 02:35:25;;;;;;;14.55;4.45;;;31.40;95.70;;;;;;1781020;77;21149;-69
2023/06/15 02:37:57;;;;;;;7.03;2.90;;;31.50;95.60;;;;;;1840008;77;21089;-68
2023/06/15 02:40:28;;;;;;;13.13;3.45;;;31.60;95.30;;;;;;1824934;77;21141;-67
2023/06/15 02:43:01;;;;;;;43.08;7.58;;;31.70;95.30;;;;;;1867316;75;21593;-72
2023/06/15 02:45:32;;;;;;;43.90;7.53;;;31.90;94.80;;;;;;1883362;74;21643;-70
2023/06/15 02:48:04;;;;;;;31.82;6.28;;;32.00;94.30;;;;;;1833045;77;21126;-69
2023/06/15 02:50:36;;;;;;;14.83;3.67;;;32.20;94.40;;;;;;1873011;75;21129;-68
2023/06/15 02:53:07;;;;;;;13.75;4.03;;;32.20;94.10;;;;;;1821814;77;21167;-68
2023/06/15 02:55:41;;;;;;;10.48;3.10;;;32.40;94.10;;;;;;1830069;76;21189;-70
2023/06/15 02:58:13;;;;;;;30.30;5.62;;;32.50;93.80;;;;;;1801357;78;21142;-70
2023/06/15 03:00:49;;;;;;;136.20;16.20;;;32.60;93.90;;;;;;1795847;78;21641;-71
2023/06/15 03:03:27;;;;;;;11.63;3.75;;;32.60;94.00;;;;;;1805920;78;21206;-71
2023/06/15 03:05:57;;;;;;;20.40;3.47;;;32.70;93.40;;;;;;1792581;79;21175;-70
2023/06/15 03:08:31;;;;;;;17.15;3.62;;;32.80;92.80;;;;;;1782608;78;21195;-70
2023/06/15 03:11:03;;;;;;;24.45;7.53;;;32.90;92.90;;;;;;1834456;77;21585;-69
2023/06/15 03:13:34;;;;;;;10.53;3.05;;;32.90;93.40;;;;;;1839316;77;21084;-68
2023/06/15 03:16:07;;;;;;;44.53;7.72;;;33.00;92.70;;;;;;1778992;79;21084;-72
2023/06/15 03:18:42;;;;;;;33.30;6.15;;;33.00;93.00;;;;;;1876305;74;21061;-70
2023/06/15 03:21:14;;;;;;;15.23;4.20;;;33.10;92.50;;;;;;1873128;75;21110;-70
2023/06/15 03:23:46;;;;;;;11.68;3.52;;;33.10;92.40;;;;;;1871116;75;21158;-69
2023/06/15 03:26:18;;;;;;;9.30;3.50;;;33.20;92.20;;;;;;1877467;75;21174;-70
2023/06/15 03:28:53;;;;;;;11.88;3.85;;;33.30;91.90;;;;;;1858357;74;21601;-69
2023/06/15 03:31:28;;;;;;;29.45;5.40;;;33.40;91.40;;;;;;1887453;75;21201;-68
2023/06/15 03:34:02;;;;;;;16.25;3.92;;;33.30;91.80;;;;;;1815499;76;21112;-74
2023/06/15 03:36:33;;;;;;;11.33;3.00;;;33.40;91.30;;;;;;1820272;77;21124;-70
2023/06/15 03:39:06;;;;;;;12.50;2.77;;;33.40;91.40;;;;;;1792720;79;21120;-69
2023/06/15 03:41:37;;;;;;;13.88;3.27;;;;;;;;;;1832693;76;21176;-71
2023/06/15 03:44:08;;;;;;;13.48;3.10;;;33.50;91.00;;;;;;1839212;76;21167;-71
2023/06/15 03:46:41;;;;;;;21.52;4.40;;;33.60;90.80;;;;;;1849976;76;21187;-69
2023/06/15 03:49:13;;;;;;;16.90;4.60;;;33.60;91.10;;;;;;1861003;75;21569;-69
2023/06/15 03:51:45;;;;;;;23.07;4.78;;;33.80;90.40;;;;;;1853403;75;21091;-69
2023/06/15 03:54:16;;;;;;;24.10;5.03;;;33.80;90.60;;;;;;1856768;76;21246;-71
2023/06/15 03:56:48;;;;;;;11.57;4.28;;;33.90;90.00;;;;;;1823964;76;21549;-69
2023/06/15 03:59:19;;;;;;;27.20;5.15;;;33.90;90.10;;;;;;1785824;79;21131;-70
2023/06/15 04:01:51;;;;;;;26.60;5.28;;;33.90;89.40;;;;;;1802705;77;21155;-69
2023/06/15 04:04:22;;;;;;;31.57;5.85;;;33.90;89.70;;;;;;1875787;74;21139;-69
2023/06/15 04:06:56;;;;;;;42.30;6.17;;;34.00;88.80;;;;;;1877212;75;21637;-70
2023/06/15 04:09:26;;;;;;;14.45;3.27;;;34.00;88.10;;;;;;1791448;79;21675;-71
2023/06/15 04:11:57;;;;;;;11.80;3.25;;;34.00;89.60;;;;;;1799626;78;21150;-69
2023/06/15 04:14:30;;;;;;;6.72;2.50;;;34.00;88.60;;;;;;1848587;76;21699;-70
2023/06/15 04:17:04;;;;;;;12.47;3.15;;;34.00;88.30;;;;;;1853143;74;21651;-69
2023/06/15 04:19:39;;;;;;;16.45;2.92;;;33.90;89.70;;;;;;1853953;75;21159;-70
2023/06/15 04:22:11;;;;;;;11.95;3.15;;;33.90;90.00;;;;;;1824073;76;21086;-70
2023/06/15 04:24:43;;;;;;;5.40;2.70;;;33.90;89.30;;;;;;1821830;77;21189;-73
2023/06/15 04:27:18;;;;;;;6.65;3.00;;;34.00;88.60;;;;;;1825793;76;21108;-71
2023/06/15 04:29:49;;;;;;;20.65;3.75;;;34.00;89.10;;;;;;1861497;75;21126;-68
2023/06/15 04:32:20;;;;;;;46.85;7.87;;;34.00;89.00;;;;;;1826207;77;21205;-70
2023/06/15 04:34:54;;;;;;;10.32;2.77;;;34.00;88.70;;;;;;1827055;76;21095;-69
2023/06/15 04:44:22;;;;;;;27.95;5.22;;;34.30;89.10;;;;;;1837092;76;21600;-71
2023/06/15 04:46:53;;;;;;;7.20;2.90;;;34.30;88.90;;;;;;1837108;76;21279;-70
2023/06/15 04:49:27;;;;;;;13.35;5.80;;;34.20;87.20;;;;;;1851575;75;21204;-68
2023/06/15 04:51:58;;;;;;;37.65;6.33;;;34.10;86.90;;;;;;1859203;75;21182;-70
2023/06/15 04:54:29;;;;;;;6.62;2.52;;;34.00;88.10;;;;;;1829028;76;21115;-70
2023/06/15 04:57:00;;;;;;;11.73;2.70;;;33.90;89.00;;;;;;1768678;79;21210;-71
2023/06/15 04:59:34;;;;;;;9.88;2.45;;;33.90;88.90;;;;;;1836611;76;21649;-69
2023/06/15 05:02:07;;;;;;;12.88;3.12;;;33.90;88.70;;;;;;1833152;76;21100;-69
2023/06/15 05:04:38;;;;;;;10.08;2.60;;;33.90;88.90;;;;;;1864771;74;21142;-69
2023/06/15 05:07:09;;;;;;;6.90;2.25;;;34.00;88.90;;;;;;1844023;76;21123;-68
2023/06/15 05:09:42;;;;;;;24.65;4.28;;;34.00;88.70;;;;;;1847431;76;21581;-70
2023/06/15 05:12:13;;;;;;;13.90;3.67;;;33.90;90.00;;;;;;1849775;76;21217;-71
2023/06/15 05:14:44;;;;;;;12.88;3.70;;;33.90;90.20;;;;;;1851597;75;21169;-68
2023/06/15 05:17:16;;;;;;;8.78;3.67;;;33.90;89.80;;;;;;1839338;76;21698;-68
2023/06/15 05:19:50;;;;;;;12.03;4.10;;;33.90;90.10;;;;;;1877608;74;21606;-69
2023/06/15 05:22:21;;;;;;;9.65;3.45;;;33.80;90.80;;;;;;1833361;77;21126;-70
2023/06/15 05:24:53;;;;;;;8.85;3.12;;;33.80;90.20;;;;;;1821888;76;21143;-70
2023/06/15 05:27:24;;;;;;;17.75;3.42;;;33.80;90.30;;;;;;1890555;74;21650;-67
2023/06/15 05:29:55;;;;;;;13.00;4.03;;;33.80;90.60;;;;;;1870276;74;21652;-69
2023/06/15 05:32:26;;;;;;;9.63;3.87;;;33.80;90.50;;;;;;1842072;77;21106;-69
2023/06/15 05:34:58;;;;;;;9.50;3.47;;;33.70;90.30;;;;;;1859352;76;21186;-69
2023/06/15 05:37:29;;;;;;;11.48;3.47;;;33.70;90.20;;;;;;1867906;75;21189;-67
2023/06/15 05:40:01;;;;;;;6.33;3.00;;;33.70;90.30;;;;;;1824572;77;21186;-68
2023/06/15 05:42:33;;;;;;;13.62;4.05;;;33.70;90.00;;;;;;1831306;77;21088;-69
2023/06/15 05:45:05;;;;;;;5.72;3.02;;;33.70;90.50;;;;;;1831863;77;21611;-67
2023/06/15 05:47:38;;;;;;;8.85;2.92;;;33.70;90.20;;;;;;1847362;77;21118;-69
2023/06/15 05:50:10;;;;;;;20.00;3.75;;;33.70;90.50;;;;;;1836820;76;21678;-68
2023/06/15 05:52:42;;;;;;;5.03;2.50;;;33.80;90.40;;;;;;1833617;77;21176;-69
2023/06/15 05:55:13;;;;;;;9.60;2.85;;;33.80;90.70;;;;;;1837965;78;21080;-68
2023/06/15 05:57:46;;;;;;;14.33;3.17;;;33.80;90.30;;;;;;1838924;78;21136;-69
2023/06/15 06:00:18;;;;;;;24.72;3.52;;;33.90;90.40;;;;;;1822798;78;21134;-70
2023/06/15 06:02:49;;;;;;;11.57;2.80;;;34.00;90.50;;;;;;1869259;75;21081;-70
2023/06/15 06:05:21;;;;;;;10.20;3.30;;;34.10;90.10;;;;;;1895604;74;21160;-67
2023/06/15 06:07:52;;;;;;;7.92;3.52;;;34.20;90.00;;;;;;1873472;75;21197;-68
2023/06/15 06:10:24;;;;;;;21.62;5.58;;;34.30;89.90;;;;;;1841309;76;21092;-69
2023/06/15 06:12:55;;;;;;;15.30;3.55;;;34.40;89.90;;;;;;1864085;77;21119;-68
2023/06/15 06:15:29;;;;;;;20.88;4.80;;;34.50;88.60;;;;;;1837207;77;21216;-70
2023/06/15 06:18:01;;;;;;;11.12;3.60;;;34.50;88.80;;;;;;1840960;76;21735;-68
2023/06/15 06:20:35;;;;;;;14.50;3.77;;;34.60;87.50;;;;;;1819691;77;21149;-69
2023/06/15 06:23:07;;;;;;;23.40;4.75;;;34.60;87.70;;;;;;1843895;78;21178;-68
2023/06/15 06:25:39;;;;;;;49.30;6.92;;;34.60;88.20;;;;;;1851280;75;21162;-70
2023/06/15 06:28:11;;;;;;;24.60;4.30;;;34.60;87.60;;;;;;1852859;76;21080;-69
2023/06/15 06:30:43;;;;;;;36.95;5.47;;;34.60;87.50;;;;;;1865508;75;21139;-69
2023/06/15 06:33:22;;;;;;;22.17;3.90;;;34.60;87.30;;;;;;1853879;76;21203;-69
2023/06/15 06:35:53;;;;;;;18.42;5.28;;;34.60;88.10;;;;;;1849420;75;21087;-71
2023/06/15 06:38:25;;;;;;;18.15;4.53;;;34.60;88.20;;;;;;1838946;76;21151;-69
2023/06/15 06:40:56;;;;;;;18.75;4.42;;;34.50;88.20;;;;;;1826797;76;21107;-70
2023/06/15 06:43:28;;;;;;;16.62;2.92;;;34.50;88.40;;;;;;1848940;77;21127;-72
2023/06/15 06:45:59;;;;;;;18.60;3.67;;;34.50;88.00;;;;;;1821862;78;21127;-71
2023/06/15 06:48:30;;;;;;;6.83;2.50;;;34.40;88.40;;;;;;1801639;77;21240;-73
2023/06/15 06:51:01;;;;;;;31.50;4.28;;;34.40;88.40;;;;;;1814828;79;21586;-71
2023/06/15 06:53:34;;;;;;;15.05;3.67;;;34.30;87.70;;;;;;1828453;76;21673;-71
2023/06/15 06:56:06;;;;;;;13.88;3.25;;;34.20;88.30;;;;;;1841399;76;21108;-69
2023/06/15 06:58:37;;;;;;;19.35;3.90;;;34.00;88.10;;;;;;1859128;74;21084;-71
2023/06/15 07:01:08;;;;;;;11.22;3.40;;;34.00;88.30;;;;;;1834601;76;21168;-71
2023/06/15 07:03:40;;;;;;;37.78;6.42;;;33.90;88.30;;;;;;1831837;77;21159;-69
2023/06/15 07:06:12;;;;;;;10.93;3.60;;;33.80;88.80;;;;;;1854864;75;21236;-69
2023/06/15 07:08:44;;;;;;;13.08;3.55;;;33.90;88.40;;;;;;1871882;75;21057;-71
2023/06/15 07:11:16;;;;;;;12.43;3.20;;;33.90;88.40;;;;;;1864496;74;21212;-70
2023/06/15 07:13:47;;;;;;;8.73;2.90;;;33.90;88.50;;;;;;1842989;76;21135;-70
2023/06/15 07:16:18;;;;;;;14.33;3.12;;;34.00;87.90;;;;;;1881057;74;21268;-71
2023/06/15 07:18:50;;;;;;;36.95;6.62;;;34.00;88.10;;;;;;1875792;74;21193;-69
2023/06/15 07:21:22;;;;;;;14.95;3.47;;;34.00;88.90;;;;;;1880608;74;21142;-71
2023/06/15 07:23:53;;;;;;;22.65;3.90;;;34.10;88.10;;;;;;1888767;75;21158;-71
2023/06/15 07:26:25;;;;;;;20.97;5.87;;;34.10;88.30;;;;;;1845446;76;21617;-73
2023/06/15 07:28:57;;;;;;;23.15;4.95;;;34.10;89.00;;;;;;1841078;76;21128;-69
2023/06/15 07:31:28;;;;;;;32.03;5.92;;;34.10;89.30;;;;;;1828544;76;21142;-71
2023/06/15 07:34:01;;;;;;;36.77;6.75;;;34.20;87.60;;;;;;1821553;77;21124;-73
2023/06/15 07:36:33;;;;;;;22.20;6.12;;;34.10;87.30;;;;;;1881207;75;21048;-71
2023/06/15 07:39:06;;;;;;;9.30;3.30;;;34.20;88.30;;;;;;1869932;74;21335;-71
2023/06/15 07:41:38;;;;;;;25.77;4.40;;;34.00;87.40;;;;;;1871155;75;21138;-71
2023/06/15 07:44:12;;;;;;;4.53;2.35;;;34.20;87.80;;;;;;1867366;76;21167;-70
2023/06/15 07:46:44;;;;;;;12.40;3.22;;;34.20;88.20;;;;;;1871461;75;21640;-72
2023/06/15 07:49:17;;;;;;;16.95;3.33;;;34.20;88.50;;;;;;1856538;76;21158;-71
2023/06/15 07:51:51;;;;;;;10.08;2.98;;;34.30;87.40;;;;;;1852824;76;21119;-71
2023/06/15 07:54:23;;;;;;;8.38;2.95;;;34.40;87.70;;;;;;1868272;75;21123;-71
2023/06/15 07:56:55;;;;;;;7.08;2.22;;;34.50;88.50;;;;;;1846739;75;21062;-70
2023/06/15 07:59:26;;;;;;;6.15;2.30;;;34.60;90.60;;;;;;1861901;74;21048;-71
2023/06/15 08:01:58;;;;;;;5.53;2.10;;;34.60;87.00;;;;;;1852260;75;21139;-71
2023/06/15 08:04:29;;;;;;;3.67;2.20;;;34.70;87.90;;;;;;1857234;74;21128;-68
2023/06/15 08:07:01;;;;;;;5.62;1.85;;;34.60;88.30;;;;;;1846637;76;21201;-69
2023/06/15 08:09:32;;;;;;;7.45;2.37;;;34.50;85.70;;;;;;1864407;75;21174;-70
2023/06/15 08:12:03;;;;;;;9.15;2.35;;;34.50;86.60;;;;;;1851882;76;21151;-71
2023/06/15 08:14:35;;;;;;;25.00;4.40;;;34.50;86.50;;;;;;1859539;75;21542;-72
2023/06/15 08:17:09;;;;;;;10.03;3.35;;;34.40;86.60;;;;;;1839886;76;21077;-69
2023/06/15 08:19:42;;;;;;;14.25;3.52;;;34.30;86.50;;;;;;1835467;76;21169;-75
2023/06/15 08:22:15;;;;;;;20.52;3.90;;;34.20;87.50;;;;;;1865367;76;21224;-71
2023/06/15 08:24:46;;;;;;;5.80;2.30;;;34.10;87.70;;;;;;1802689;78;21162;-74
2023/06/15 08:27:18;;;;;;;9.38;2.87;;;34.10;87.70;;;;;;1856949;74;21130;-70
2023/06/15 08:29:49;;;;;;;6.58;2.50;;;34.00;89.90;;;;;;1843561;76;21173;-69
2023/06/15 08:32:20;;;;;;;7.78;2.50;;;33.90;90.40;;;;;;1869940;75;21115;-72
2023/06/15 08:34:52;;;;;;;6.75;2.30;;;33.80;90.60;;;;;;1870302;74;21089;-72
2023/06/15 08:37:25;;;;;;;5.33;2.15;;;33.80;94.60;;;;;;1864079;76;21143;-71
2023/06/15 08:39:56;;;;;;;16.35;3.22;;;33.80;91.80;;;;;;1814091;76;21196;-71
2023/06/15 08:42:29;;;;;;;5.80;2.35;;;33.80;90.60;;;;;;1879286;75;21675;-72
2023/06/15 08:45:02;;;;;;;5.40;2.75;;;33.80;90.70;;;;;;1819763;77;21240;-72
2023/06/15 08:47:38;;;;;;;11.60;2.98;;;33.80;90.80;;;;;;1836661;76;21217;-70
2023/06/15 08:50:10;;;;;;;9.98;2.72;;;33.70;90.30;;;;;;1878898;75;21146;-70
2023/06/15 08:52:43;;;;;;;11.57;3.65;;;33.80;90.40;;;;;;1858674;76;21043;-70
2023/06/15 08:55:16;;;;;;;8.43;3.83;;;33.80;90.40;;;;;;1882941;75;21196;-71
2023/06/15 08:57:48;;;;;;;25.23;5.45;;;33.80;90.40;;;;;;1886521;76;21204;-72
2023/06/15 09:00:20;;;;;;;28.00;5.08;;;33.80;90.30;;;;;;1830220;76;21154;-69
2023/06/15 09:02:56;;;;;;;43.68;6.10;;;34.00;90.90;;;;;;1816078;78;21073;-70
2023/06/15 09:05:28;;;;;;;11.45;2.90;;;34.00;90.10;;;;;;1854948;76;21110;-70
2023/06/15 09:08:00;;;;;;;16.10;3.75;;;34.10;89.60;;;;;;1858280;75;21069;-70
2023/06/15 09:10:33;;;;;;;11.35;3.27;;;34.10;89.50;;;;;;1827832;78;21103;-70
2023/06/15 09:13:05;;;;;;;21.75;4.83;;;34.10;88.50;;;;;;1817098;78;21064;-70
2023/06/15 09:15:37;;;;;;;16.82;4.15;;;34.10;89.50;;;;;;1811275;77;21186;-69
2023/06/15 09:18:14;;;;;;;9.33;2.72;;;34.20;89.70;;;;;;1838733;76;21125;-70
2023/06/15 09:20:46;;;;;;;5.45;2.60;;;34.20;89.60;;;;;;1862969;76;21129;-72
2023/06/15 09:23:17;;;;;;;12.18;3.90;;;34.10;92.10;;;;;;1786317;78;21563;-70
2023/06/15 09:25:52;;;;;;;8.23;3.12;;;34.10;94.40;;;;;;1858723;75;21148;-70
2023/06/15 09:28:28;;;;;;;7.15;3.37;;;34.10;92.30;;;;;;1866162;76;21186;-70
2023/06/15 09:31:00;;;;;;;17.17;3.98;;;34.10;93.10;;;;;;1862448;75;21655;-72
2023/06/15 09:33:33;;;;;;;9.03;3.40;;;34.10;94.70;;;;;;1844505;75;21249;-69
2023/06/15 09:36:06;;;;;;;8.73;3.15;;;34.00;88.90;;;;;;1821846;76;21125;-71
2023/06/15 09:38:44;;;;;;;5.87;2.62;;;34.00;89.70;;;;;;1837884;76;21581;-70
2023/06/15 09:41:16;;;;;;;9.03;3.17;;;34.10;89.00;;;;;;1796756;78;21595;-69
2023/06/15 09:43:49;;;;;;;11.68;2.98;;;34.00;90.30;;;;;;1791862;79;21231;-70
2023/06/15 09:46:21;;;;;;;5.62;2.67;;;34.00;90.10;;;;;;1855615;76;21120;-70
2023/06/15 09:48:53;;;;;;;30.57;4.92;;;34.00;90.30;;;;;;1831948;77;21139;-70
2023/06/15 09:51:30;;;;;;;10.98;2.98;;;33.90;91.10;;;;;;1825385;77;21553;-71
2023/06/15 09:54:04;;;;;;;10.00;2.72;;;33.90;91.20;;;;;;1805303;77;21160;-69
2023/06/15 09:56:37;;;;;;;23.55;5.53;;;33.90;91.30;;;;;;1835325;77;21129;-70
2023/06/15 09:59:09;;;;;;;17.92;3.40;;;33.80;90.90;;;;;;1802266;78;21084;-70
2023/06/15 10:01:42;;;;;;;44.15;5.05;;;33.80;90.70;;;;;;1787690;79;21186;-71
2023/06/15 10:04:15;;;;;;;14.33;3.33;;;33.90;90.50;;;;;;1823064;77;21137;-68
2023/06/15 10:06:48;;;;;;;44.93;6.42;;;33.80;90.10;;;;;;1820047;77;21266;-72
2023/06/15 10:09:24;;;;;;;31.30;4.05;;;33.70;90.90;;;;;;1802111;79;21223;-69
2023/06/15 10:11:57;;;;;;;10.48;2.65;;;33.90;92.90;;;;;;1818760;77;21123;-70
2023/06/15 10:14:34;;;;;;;7.58;2.70;;;33.90;87.40;;;;;;1843030;76;21170;-70
2023/06/15 10:17:08;;;;;;;16.45;3.85;;;33.70;83.10;;;;;;1833833;76;21199;-70
2023/06/15 10:19:43;;;;;;;6.78;1.98;;;33.70;83.70;;;;;;1796983;78;21232;-69
2023/06/15 10:22:16;;;;;;;17.20;4.17;;;33.70;83.20;;;;;;1829753;76;21118;-67
2023/06/15 10:24:54;;;;;;;35.05;5.65;;;33.70;84.00;;;;;;1822766;76;21122;-71
2023/06/15 10:27:27;;;;;;;20.20;3.30;;;33.70;84.20;;;;;;1848908;76;21369;-69
2023/06/15 10:30:01;;;;;;;24.47;3.80;;;33.70;84.20;;;;;;1864301;76;21193;-68
2023/06/15 10:32:41;;;;;;;20.80;3.42;;;33.60;84.40;;;;;;1852909;76;21156;-69
2023/06/15 10:35:31;;;;;;;27.45;5.72;;;33.60;84.00;;;;;;1810956;77;21199;-70
2023/06/15 10:38:13;;;;;;;15.48;4.00;;;33.60;84.20;;;;;;1747520;80;21225;-69
2023/06/15 10:40:51;;;;;;;7.67;2.45;;;33.50;84.40;;;;;;1769738;79;21150;-69
2023/06/15 10:43:25;;;;;;;8.70;2.67;;;33.50;84.70;;;;;;1798600;77;21172;-70
2023/06/15 10:46:02;;;;;;;16.80;2.60;;;33.40;84.80;;;;;;1852318;75;21264;-69
2023/06/15 10:48:32;;;;;;;5.60;2.00;;;33.40;84.80;;;;;;1842076;76;21067;-71
2023/06/15 10:51:08;;;;;;;23.27;5.33;;;33.40;84.80;;;;;;1846587;76;21119;-69
2023/06/15 10:53:43;;;;;;;8.33;2.70;;;33.40;86.00;;;;;;1845378;76;21208;-70
2023/06/15 10:56:16;;;;;;;11.30;2.67;;;33.30;85.50;;;;;;1853951;75;21142;-71
2023/06/15 10:58:56;;;;;;;5.62;2.27;;;33.30;85.60;;;;;;1853612;76;21174;-70
2023/06/15 11:01:30;;;;;;;14.58;3.72;;;33.30;85.50;;;;;;1862853;75;21096;-69
2023/06/15 11:04:22;;;;;;;54.48;8.23;;;33.30;85.80;;;;;;1798953;78;21172;-72
2023/06/15 11:07:10;;;;;;;6.20;2.12;;;33.20;85.90;;;;;;1746121;80;21190;-70
2023/06/15 11:09:41;;;;;;;15.43;3.50;;;33.20;86.30;;;;;;1827798;76;21147;-70
2023/06/15 11:12:36;;;;;;;10.93;2.40;;;33.20;86.70;;;;;;1807884;78;21146;-70
2023/06/15 11:15:10;;;;;;;25.27;2.73;;;33.20;87.10;;;;;;1765304;79;21247;-70
2023/06/15 11:18:00;;;;;;;9.85;2.52;;;33.20;87.50;;;;;;1796601;78;21134;-70
2023/06/15 11:20:42;;;;;;;6.28;2.00;;;33.20;87.60;;;;;;1847276;76;21166;-70
2023/06/15 11:23:25;;;;;;;7.50;2.65;;;33.10;87.70;;;;;;1833812;76;21147;-70
2023/06/15 11:25:57;;;;;;;9.68;2.67;;;33.10;88.10;;;;;;1832089;76;21209;-71
2023/06/15 11:28:32;;;;;;;7.80;2.30;;;33.00;88.30;;;;;;1837780;76;21175;-71
2023/06/15 11:31:10;;;;;;;9.50;3.20;;;33.00;88.60;;;;;;1847392;76;21048;-70
2023/06/15 11:33:41;;;;;;;10.63;2.52;;;33.00;89.10;;;;;;1875175;76;21570;-70
2023/06/15 11:36:12;;;;;;;5.72;2.60;;;33.00;89.40;;;;;;1847559;75;21174;-70
2023/06/15 11:38:44;;;;;;;10.50;3.05;;;32.90;89.70;;;;;;1869634;74;21534;-70
2023/06/15 11:41:16;;;;;;;9.05;2.65;;;32.90;89.80;;;;;;1851314;76;21247;-71
2023/06/15 11:43:48;;;;;;;14.63;4.00;;;32.90;90.00;;;;;;1870282;76;21508;-68
2023/06/15 11:46:21;;;;;;;9.48;3.72;;;32.90;90.10;;;;;;1827895;77;21111;-71
2023/06/15 11:48:57;;;;;;;10.38;3.27;;;32.90;90.30;;;;;;1838897;76;21087;-69
2023/06/15 11:51:28;;;;;;;8.23;3.33;;;32.80;90.30;;;;;;1829788;75;21155;-69
2023/06/15 11:54:02;;;;;;;7.72;3.12;;;32.80;90.40;;;;;;1799965;78;21119;-67
2023/06/15 11:56:34;;;;;;;17.25;4.35;;;32.70;90.50;;;;;;1811284;77;21067;-70
2023/06/15 11:59:05;;;;;;;10.38;3.75;;;32.80;90.70;;;;;;1834929;76;21175;-71
2023/06/15 12:01:37;;;;;;;8.98;3.60;;;32.70;90.70;;;;;;1884004;75;21467;-71
2023/06/15 12:04:17;;;;;;;9.08;3.70;;;32.70;90.80;;;;;;1801931;77;21226;-68
2023/06/15 12:06:44;;;;;;;;;;;32.70;90.90;;;;;;1812592;77;21143;-70
2023/06/15 12:09:17;;;;;;;7.37;3.83;;;32.70;90.80;;;;;;1850063;76;20235;-69
2023/06/15 12:11:48;;;;;;;7.33;3.98;;;32.70;91.00;;;;;;1805619;77;21616;-70
2023/06/15 12:14:22;;;;;;;12.15;4.08;;;32.70;91.10;;;;;;1795898;78;21203;-70
2023/06/15 12:16:54;;;;;;;10.38;4.50;;;32.60;91.10;;;;;;1788978;78;21119;-69
2023/06/15 12:19:27;;;;;;;11.25;4.90;;;32.60;91.20;;;;;;1784042;79;21481;-70
2023/06/15 12:22:00;;;;;;;23.32;5.15;;;32.60;91.30;;;;;;1834142;76;21107;-69
2023/06/15 12:24:34;;;;;;;19.23;4.70;;;32.60;91.40;;;;;;1861179;76;21147;-70
2023/06/15 12:27:07;;;;;;;8.38;4.12;;;32.60;91.40;;;;;;1809839;78;21585;-69
2023/06/15 12:29:38;;;;;;;11.85;4.47;;;32.50;91.60;;;;;;1785973;79;21648;-70
2023/06/15 12:32:09;;;;;;;7.75;4.08;;;32.50;91.50;;;;;;1748668;80;21119;-70
2023/06/15 12:34:46;;;;;;;10.05;4.67;;;32.50;91.50;;;;;;1805104;77;21612;-68
2023/06/15 12:37:17;;;;;;;9.53;4.42;;;32.50;91.50;;;;;;1820156;76;21150;-71
2023/06/15 12:39:49;;;;;;;7.65;4.05;;;32.50;91.60;;;;;;1823368;76;21578;-71
2023/06/15 12:42:23;;;;;;;10.45;4.37;;;32.50;91.70;;;;;;1796535;78;21136;-68
2023/06/15 12:44:54;;;;;;;7.55;4.30;;;32.50;91.70;;;;;;1777593;79;21146;-71
2023/06/15 12:47:26;;;;;;;11.53;4.62;;;32.50;91.80;;;;;;1797230;78;21181;-71
2023/06/15 12:49:59;;;;;;;32.13;6.10;;;32.40;91.90;;;;;;1865854;76;21146;-72
2023/06/15 12:52:30;;;;;;;15.38;4.60;;;32.40;91.90;;;;;;1815568;78;21072;-70
2023/06/15 12:55:01;;;;;;;14.95;4.87;;;32.40;92.00;;;;;;1816079;78;21145;-70
2023/06/15 12:57:34;;;;;;;13.78;5.17;;;32.40;92.10;;;;;;1805206;79;21235;-70
2023/06/15 13:00:07;;;;;;;12.55;6.62;;;32.40;92.10;;;;;;1772043;80;21134;-70
2023/06/15 13:02:39;;;;;;;10.90;5.53;;;32.40;92.20;;;;;;1781594;79;21202;-69
2023/06/15 13:05:11;;;;;;;10.20;5.42;;;32.40;92.30;;;;;;1789553;79;21177;-68
2023/06/15 13:07:42;;;;;;;13.38;5.70;;;32.30;92.30;;;;;;1821284;78;21139;-70
2023/06/15 13:10:14;;;;;;;12.13;5.92;;;32.30;92.30;;;;;;1871226;76;21178;-68
2023/06/15 13:12:47;;;;;;;13.60;6.10;;;32.30;92.50;;;;;;1806709;77;21131;-70
2023/06/15 13:15:19;;;;;;;11.80;5.97;;;32.30;92.70;;;;;;1842110;76;21155;-69